Time;durP1;ratioP1;P1;durP2;ratioP2;P2;SDS_P1;SDS_P2;PMS_P1;PMS_P2;Temp;Humidity;BMP_temperature;BMP_pressure;BME280_temperature;BME280_humidity;BME280_pressure;Samples;Min_cycle;Max_cycle;Signal;HPM_P1;HPM_P2
2021/03/24 00:00:46;;;;;;;26.30;17.13;;;3.20;99.90;;;;;;5030836;28;20847;-79
2021/03/24 00:03:13;;;;;;;26.57;18.60;;;3.20;99.90;;;;;;5027469;28;20426;-77
2021/03/24 00:05:43;;;;;;;20.23;15.47;;;3.10;99.90;;;;;;5034494;28;20464;-77
2021/03/24 00:08:09;;;;;;;25.83;16.73;;;3.10;99.90;;;;;;5030202;28;20943;-76
2021/03/24 00:10:37;;;;;;;22.43;15.03;;;3.10;99.90;;;;;;5033017;28;20445;-78
2021/03/24 00:13:04;;;;;;;24.13;16.43;;;3.10;99.90;;;;;;5023622;28;20593;-78
2021/03/24 00:15:30;;;;;;;27.00;18.90;;;3.10;99.90;;;;;;5031915;28;20804;-77
2021/03/24 00:17:56;;;;;;;26.47;17.17;;;3.10;99.90;;;;;;5032027;28;20954;-78
2021/03/24 00:20:26;;;;;;;28.83;16.77;;;3.10;99.90;;;;;;5032605;28;20192;-79
2021/03/24 00:22:52;;;;;;;27.27;18.90;;;3.10;99.90;;;;;;5031517;28;20557;-77
2021/03/24 00:25:19;;;;;;;28.33;18.63;;;3.20;99.90;;;;;;5040955;28;20485;-78
2021/03/24 00:27:47;;;;;;;25.60;17.10;;;3.10;99.90;;;;;;5041662;28;20438;-78
2021/03/24 00:30:15;;;;;;;27.03;17.83;;;3.10;99.90;;;;;;5041968;28;20437;-76
2021/03/24 00:32:40;;;;;;;26.30;18.33;;;3.30;99.90;;;;;;5030996;28;20493;-78
2021/03/24 00:35:08;;;;;;;26.77;18.40;;;3.40;99.90;;;;;;5027281;28;20922;-78
2021/03/24 00:37:34;;;;;;;28.83;18.30;;;3.30;99.90;;;;;;5017418;28;20194;-78
2021/03/24 00:40:00;;;;;;;24.80;17.57;;;3.20;99.90;;;;;;5028442;28;20426;-79
2021/03/24 00:42:26;;;;;;;27.00;18.87;;;3.30;99.90;;;;;;5027569;28;20479;-78
2021/03/24 00:44:52;;;;;;;28.77;18.77;;;3.20;99.90;;;;;;5033050;28;20505;-76
2021/03/24 00:47:17;;;;;;;29.23;18.60;;;3.10;99.90;;;;;;5034342;28;20281;-76
2021/03/24 00:49:44;;;;;;;30.40;19.37;;;3.00;99.90;;;;;;5028966;28;20195;-78
2021/03/24 00:52:10;;;;;;;31.23;18.73;;;3.00;99.90;;;;;;5012920;28;20218;-78
2021/03/24 00:54:35;;;;;;;26.40;17.30;;;2.90;99.90;;;;;;5026947;28;20470;-78
2021/03/24 00:57:01;;;;;;;26.20;18.20;;;2.90;99.90;;;;;;5027604;28;20655;-78
2021/03/24 00:59:26;;;;;;;25.17;18.23;;;2.90;99.90;;;;;;5026790;28;20252;-78
2021/03/24 01:01:52;;;;;;;22.87;17.50;;;2.90;99.90;;;;;;5029348;28;20210;-77
2021/03/24 01:04:18;;;;;;;24.13;16.27;;;2.80;99.90;;;;;;5027933;28;20290;-76
2021/03/24 01:06:43;;;;;;;32.60;19.47;;;2.80;99.90;;;;;;5027320;28;20202;-76
2021/03/24 01:09:10;;;;;;;24.57;17.90;;;2.70;99.90;;;;;;5027114;28;20219;-76
2021/03/24 01:11:39;;;;;;;30.17;18.73;;;2.70;99.90;;;;;;5026797;28;20195;-76
2021/03/24 01:14:06;;;;;;;29.87;20.10;;;2.70;99.90;;;;;;5026596;28;20504;-79
2021/03/24 01:16:32;;;;;;;28.57;18.17;;;2.80;99.90;;;;;;5027525;28;20433;-79
2021/03/24 01:18:58;;;;;;;27.93;19.63;;;2.60;99.90;;;;;;5027140;28;20438;-78
2021/03/24 01:21:24;;;;;;;29.87;18.80;;;2.70;99.90;;;;;;5017520;28;20683;-79
2021/03/24 01:23:49;;;;;;;27.50;19.10;;;2.70;99.90;;;;;;5019568;28;20210;-76
2021/03/24 01:26:16;;;;;;;27.83;18.47;;;2.70;99.90;;;;;;5026435;28;20233;-79
2021/03/24 01:28:41;;;;;;;30.57;18.80;;;2.70;99.90;;;;;;5026867;28;20195;-78
2021/03/24 01:31:07;;;;;;;27.00;18.43;;;2.70;99.90;;;;;;5027610;28;20449;-79
2021/03/24 01:33:33;;;;;;;34.70;20.67;;;2.70;99.90;;;;;;5018415;28;20206;-80
2021/03/24 01:35:58;;;;;;;29.20;19.43;;;2.80;99.90;;;;;;5026854;28;20187;-79
2021/03/24 01:38:25;;;;;;;30.13;19.90;;;2.80;99.90;;;;;;5017368;28;20175;-76
2021/03/24 01:40:57;;;;;;;32.63;20.00;;;2.80;99.90;;;;;;5031250;28;20218;-77
2021/03/24 01:43:29;;;;;;;30.33;18.00;;;2.90;99.90;;;;;;5027021;28;20581;-78
2021/03/24 01:46:22;;;;;;;26.47;18.23;;;2.90;99.90;;;;;;5024922;28;22174;-79
2021/03/24 01:48:59;;;;;;;25.60;17.93;;;2.80;99.90;;;;;;5026323;28;20942;-77
2021/03/24 01:51:34;;;;;;;25.47;17.83;;;2.80;99.90;;;;;;5026933;28;20488;-78
2021/03/24 01:54:00;;;;;;;27.90;18.60;;;2.70;99.90;;;;;;5025773;28;20835;-79
2021/03/24 01:56:27;;;;;;;32.00;18.90;;;2.70;99.90;;;;;;5026391;28;20438;-75
2021/03/24 01:58:55;;;;;;;30.20;18.67;;;2.70;99.90;;;;;;5026119;28;20954;-77
2021/03/24 02:01:22;;;;;;;28.07;17.80;;;2.60;99.90;;;;;;5026451;28;20470;-77
2021/03/24 02:03:48;;;;;;;30.10;18.93;;;2.60;99.90;;;;;;5025448;28;20968;-74
2021/03/24 02:06:35;;;;;;;27.70;18.37;;;2.50;99.90;;;;;;5026009;28;20948;-76
2021/03/24 02:09:04;;;;;;;25.03;16.90;;;2.60;99.90;;;;;;5026501;28;20433;-76
2021/03/24 02:11:33;;;;;;;28.43;17.77;;;2.50;99.90;;;;;;5026138;28;20445;-75
2021/03/24 02:14:07;;;;;;;23.60;17.37;;;2.50;99.90;;;;;;5025710;28;20505;-75
2021/03/24 02:16:37;;;;;;;27.30;18.70;;;2.40;99.90;;;;;;5025771;28;20442;-75
2021/03/24 02:19:13;;;;;;;29.33;18.53;;;2.40;99.90;;;;;;5026345;28;20461;-75
2021/03/24 02:21:40;;;;;;;26.90;19.93;;;2.30;99.90;;;;;;5031138;28;20555;-76
2021/03/24 02:24:38;;;;;;;26.50;16.83;;;2.30;99.90;;;;;;5029820;28;20469;-76
2021/03/24 02:27:21;;;;;;;26.97;17.67;;;2.20;99.90;;;;;;5002617;28;20940;-76
2021/03/24 02:29:57;;;;;;;29.27;21.23;;;2.20;99.90;;;;;;5030030;28;20426;-78
2021/03/24 02:32:28;;;;;;;28.43;17.50;;;2.20;99.90;;;;;;5029576;28;20459;-77
2021/03/24 02:35:00;;;;;;;31.10;18.30;;;2.10;99.90;;;;;;5029615;28;20458;-75
2021/03/24 02:37:26;;;;;;;23.47;16.60;;;2.10;99.90;;;;;;5018202;28;20449;-77
2021/03/24 02:39:53;;;;;;;26.90;17.60;;;2.10;99.90;;;;;;5025575;28;20438;-78
2021/03/24 02:42:19;;;;;;;25.07;17.03;;;2.00;99.90;;;;;;5029952;28;20473;-77
2021/03/24 02:44:45;;;;;;;26.60;17.20;;;2.10;99.90;;;;;;5029473;28;20445;-76
2021/03/24 02:47:12;;;;;;;23.57;17.20;;;2.00;99.90;;;;;;5029458;28;20456;-75
2021/03/24 02:49:41;;;;;;;29.13;16.97;;;2.00;99.90;;;;;;5029646;28;20473;-77
2021/03/24 02:52:07;;;;;;;29.07;18.50;;;1.90;99.90;;;;;;5029271;28;20441;-79
2021/03/24 02:54:33;;;;;;;26.60;18.07;;;1.90;99.90;;;;;;5021254;28;20458;-78
2021/03/24 02:57:01;;;;;;;24.23;17.07;;;1.90;99.90;;;;;;5029159;28;20521;-77
2021/03/24 02:59:27;;;;;;;25.73;17.40;;;1.80;99.90;;;;;;5029480;28;20586;-78
2021/03/24 03:02:07;;;;;;;24.63;17.70;;;1.90;99.90;;;;;;5029559;28;20473;-78
2021/03/24 03:04:47;;;;;;;26.77;18.57;;;1.80;99.90;;;;;;5026918;28;20466;-79
2021/03/24 03:07:19;;;;;;;26.67;16.50;;;1.80;99.90;;;;;;5028843;28;20448;-75
2021/03/24 03:09:49;;;;;;;25.20;18.80;;;1.80;99.90;;;;;;5013579;28;20441;-77
2021/03/24 03:12:22;;;;;;;26.53;17.53;;;1.80;99.90;;;;;;5029417;28;20508;-77
2021/03/24 03:14:59;;;;;;;23.10;16.57;;;1.80;99.90;;;;;;5029294;28;20461;-77
2021/03/24 03:17:35;;;;;;;28.20;18.10;;;1.70;99.90;;;;;;5029439;28;20444;-77
2021/03/24 03:20:24;;;;;;;26.17;16.77;;;1.70;99.90;;;;;;5029499;28;20438;-78
2021/03/24 03:22:57;;;;;;;27.60;18.17;;;1.60;99.90;;;;;;5027564;28;20449;-77
2021/03/24 03:25:28;;;;;;;23.93;16.43;;;1.60;99.90;;;;;;5029593;28;20891;-78
2021/03/24 03:27:56;;;;;;;25.50;17.07;;;1.60;99.90;;;;;;5028780;28;20981;-78
2021/03/24 03:30:31;;;;;;;25.17;16.67;;;1.50;99.90;;;;;;5029979;28;20413;-78
2021/03/24 03:33:00;;;;;;;26.17;17.70;;;1.50;99.90;;;;;;5028149;28;20761;-78
2021/03/24 03:35:28;;;;;;;27.80;17.93;;;1.50;99.90;;;;;;5029677;28;20458;-76
2021/03/24 03:37:56;;;;;;;23.90;16.67;;;1.50;99.90;;;;;;5028629;28;20436;-78
2021/03/24 03:40:25;;;;;;;31.70;19.07;;;1.50;99.90;;;;;;5031181;28;20871;-78
2021/03/24 03:42:52;;;;;;;25.97;17.23;;;1.40;99.90;;;;;;5020583;28;20519;-76
2021/03/24 03:45:19;;;;;;;25.67;16.53;;;1.40;99.90;;;;;;5028547;28;20460;-78
2021/03/24 03:47:45;;;;;;;28.13;17.67;;;1.40;99.90;;;;;;5028757;28;20449;-78
2021/03/24 03:50:18;;;;;;;28.10;16.70;;;1.40;99.90;;;;;;5029076;28;20429;-76
2021/03/24 03:52:52;;;;;;;24.40;16.23;;;1.40;99.90;;;;;;5028533;28;20725;-77
2021/03/24 03:55:43;;;;;;;22.40;16.40;;;1.30;99.90;;;;;;5030021;28;20477;-77
2021/03/24 03:58:36;;;;;;;31.07;17.93;;;1.30;99.90;;;;;;5025480;28;20490;-78
2021/03/24 04:01:52;;;;;;;28.17;17.40;;;1.40;99.90;;;;;;5036140;28;20454;-76
2021/03/24 04:04:41;;;;;;;25.17;16.87;;;1.30;99.90;;;;;;4981536;28;20475;-77
2021/03/24 04:07:36;;;;;;;28.23;18.40;;;1.30;99.90;;;;;;4982099;28;20451;-78
2021/03/24 04:10:03;;;;;;;25.60;16.37;;;1.30;99.90;;;;;;4976213;28;20448;-77
2021/03/24 04:12:31;;;;;;;37.53;18.33;;;1.30;99.90;;;;;;4967052;28;20441;-77
2021/03/24 04:14:57;;;;;;;27.37;17.37;;;1.30;99.90;;;;;;4967200;28;20963;-77
2021/03/24 04:17:32;;;;;;;26.20;17.83;;;1.30;99.90;;;;;;4966891;28;20952;-77
2021/03/24 04:19:58;;;;;;;25.80;18.03;;;1.30;99.90;;;;;;4964578;28;20993;-78
2021/03/24 04:22:28;;;;;;;24.30;16.83;;;1.30;99.90;;;;;;4963696;28;20484;-76
2021/03/24 04:24:55;;;;;;;28.23;17.27;;;1.20;99.90;;;;;;4961477;28;20459;-78
2021/03/24 04:27:25;;;;;;;27.87;17.10;;;1.20;99.90;;;;;;4967820;28;20436;-78
2021/03/24 04:29:59;;;;;;;29.40;17.80;;;1.20;99.90;;;;;;4968050;28;20473;-79
2021/03/24 04:32:25;;;;;;;29.17;18.27;;;1.20;99.90;;;;;;4964167;28;20520;-78
2021/03/24 04:34:50;;;;;;;26.20;18.33;;;1.10;99.90;;;;;;4960547;28;20547;-78
2021/03/24 04:37:25;;;;;;;27.93;18.63;;;1.10;99.90;;;;;;4968005;28;20445;-78
2021/03/24 04:40:15;;;;;;;25.80;17.73;;;1.10;99.90;;;;;;4994759;28;20205;-79
2021/03/24 04:42:48;;;;;;;28.60;19.50;;;1.10;99.90;;;;;;5029065;28;20564;-78
2021/03/24 04:45:40;;;;;;;27.40;18.40;;;1.10;99.90;;;;;;5028810;28;20468;-77
2021/03/24 04:48:18;;;;;;;28.87;17.97;;;1.10;99.90;;;;;;5013431;28;20517;-78
2021/03/24 04:51:21;;;;;;;27.07;19.60;;;1.10;99.90;;;;;;5027803;28;20517;-78
2021/03/24 04:53:52;;;;;;;28.40;18.23;;;1.10;99.90;;;;;;4929301;29;20446;-77
2021/03/24 04:56:19;;;;;;;29.83;20.10;;;1.10;99.90;;;;;;4940326;29;20437;-78
2021/03/24 04:58:51;;;;;;;32.80;18.70;;;1.10;99.90;;;;;;4933682;29;20457;-78
2021/03/24 05:01:20;;;;;;;28.37;19.37;;;1.10;99.90;;;;;;4937229;29;20502;-78
2021/03/24 05:03:49;;;;;;;31.10;20.50;;;1.10;99.90;;;;;;4934135;29;20455;-78
2021/03/24 05:06:34;;;;;;;28.40;18.47;;;1.10;99.90;;;;;;4937892;29;20464;-79
2021/03/24 05:09:01;;;;;;;30.50;20.33;;;1.10;99.90;;;;;;4924695;29;20521;-77
2021/03/24 05:11:35;;;;;;;34.17;20.10;;;1.10;99.90;;;;;;4920862;29;20590;-79
2021/03/24 05:14:24;;;;;;;31.27;20.63;;;1.10;99.90;;;;;;4934762;29;20551;-78
2021/03/24 05:16:54;;;;;;;33.57;20.30;;;1.00;99.90;;;;;;4940048;29;20466;-78
2021/03/24 05:19:25;;;;;;;26.87;19.47;;;1.10;99.90;;;;;;4929766;29;20431;-77
2021/03/24 05:22:01;;;;;;;27.53;19.97;;;1.10;99.90;;;;;;4933263;29;20714;-79
2021/03/24 05:24:31;;;;;;;28.77;19.07;;;1.10;99.90;;;;;;4936288;29;21046;-78
2021/03/24 05:27:17;;;;;;;31.20;20.60;;;1.00;99.90;;;;;;4948117;28;20438;-76
2021/03/24 05:29:48;;;;;;;27.97;18.20;;;1.00;99.90;;;;;;5025942;28;20521;-78
2021/03/24 05:32:28;;;;;;;31.83;17.27;;;1.00;99.90;;;;;;5028074;28;20504;-76
2021/03/24 05:34:57;;;;;;;33.50;20.13;;;1.00;99.90;;;;;;5028190;28;20465;-79
2021/03/24 05:37:31;;;;;;;31.13;20.90;;;1.10;99.90;;;;;;5027777;28;21004;-78
2021/03/24 05:40:17;;;;;;;33.60;21.87;;;1.10;99.90;;;;;;5025207;28;20460;-78
2021/03/24 05:43:00;;;;;;;27.80;19.77;;;1.10;99.90;;;;;;5027840;28;20472;-77
2021/03/24 05:45:34;;;;;;;33.90;20.33;;;1.10;99.90;;;;;;5026879;28;20460;-78
2021/03/24 05:48:19;;;;;;;30.57;20.03;;;1.10;99.90;;;;;;5023285;28;20446;-78
2021/03/24 05:51:03;;;;;;;29.20;18.60;;;1.10;99.90;;;;;;5018331;28;20430;-80
2021/03/24 05:53:36;;;;;;;32.17;21.70;;;1.10;99.90;;;;;;5026047;28;20513;-77
2021/03/24 05:56:16;;;;;;;30.00;20.37;;;1.10;99.90;;;;;;5025536;28;20441;-78
2021/03/24 05:59:06;;;;;;;34.33;22.10;;;1.20;99.90;;;;;;5022713;28;20892;-78
2021/03/24 06:02:01;;;;;;;32.57;20.37;;;1.20;99.90;;;;;;5026628;28;20476;-77
2021/03/24 06:04:43;;;;;;;34.97;20.43;;;1.30;99.90;;;;;;5018885;28;20450;-78
2021/03/24 06:07:30;;;;;;;33.63;20.40;;;1.40;99.90;;;;;;5029105;28;20429;-77
2021/03/24 06:10:02;;;;;;;34.97;21.80;;;1.50;99.90;;;;;;5018748;28;20790;-78
2021/03/24 06:13:03;;;;;;;32.93;20.60;;;1.50;99.90;;;;;;5026984;28;20488;-78
2021/03/24 06:15:51;;;;;;;28.60;19.80;;;1.60;99.90;;;;;;5024792;28;21035;-77
2021/03/24 06:18:39;;;;;;;35.27;21.60;;;1.70;99.90;;;;;;5015455;28;20945;-78
2021/03/24 06:21:15;;;;;;;28.50;19.90;;;1.80;99.90;;;;;;5029864;28;20461;-78
2021/03/24 06:23:50;;;;;;;33.87;21.90;;;1.90;99.90;;;;;;5029289;28;20429;-78
2021/03/24 06:26:41;;;;;;;33.87;22.60;;;1.90;99.90;;;;;;5028903;28;20421;-77
2021/03/24 06:29:31;;;;;;;38.30;23.87;;;2.00;99.90;;;;;;5022741;28;20426;-78
2021/03/24 06:32:02;;;;;;;35.27;23.77;;;2.10;99.90;;;;;;5008254;28;20437;-76
2021/03/24 06:34:52;;;;;;;36.90;24.53;;;2.30;99.90;;;;;;5025283;28;20464;-76
2021/03/24 06:37:35;;;;;;;36.57;23.73;;;2.50;99.90;;;;;;5021999;28;20513;-78
2021/03/24 06:40:10;;;;;;;35.27;24.27;;;2.60;99.90;;;;;;5024969;28;20468;-79
2021/03/24 06:42:59;;;;;;;36.70;24.70;;;2.90;99.90;;;;;;5026515;28;20462;-80
2021/03/24 06:45:46;;;;;;;32.97;23.53;;;3.10;99.90;;;;;;5026762;28;20434;-78
2021/03/24 06:48:24;;;;;;;39.90;23.63;;;3.30;99.90;;;;;;5013442;28;20430;-78
2021/03/24 06:50:59;;;;;;;36.80;23.77;;;3.50;99.90;;;;;;5021799;28;20429;-78
2021/03/24 06:53:58;;;;;;;38.17;23.50;;;3.60;99.90;;;;;;5016293;28;20457;-78
2021/03/24 06:56:35;;;;;;;32.70;23.40;;;3.70;99.90;;;;;;5026124;28;20422;-80
2021/03/24 06:59:38;;;;;;;33.10;20.03;;;3.80;99.90;;;;;;5024993;28;20520;-79
2021/03/24 07:02:41;;;;;;;33.47;22.53;;;3.90;99.90;;;;;;5018255;28;20469;-78
2021/03/24 07:05:26;;;;;;;28.03;20.53;;;3.90;99.90;;;;;;5019347;28;20969;-78
2021/03/24 07:08:16;;;;;;;32.13;20.77;;;4.00;99.90;;;;;;5025316;28;20421;-77
2021/03/24 07:10:58;;;;;;;32.93;20.67;;;4.10;99.90;;;;;;5028210;28;20438;-76
2021/03/24 07:13:47;;;;;;;27.70;21.10;;;4.20;99.90;;;;;;5026931;28;20961;-77
2021/03/24 07:16:25;;;;;;;31.70;19.37;;;4.30;99.90;;;;;;5029174;28;20516;-78
2021/03/24 07:19:12;;;;;;;32.37;23.47;;;4.40;99.90;;;;;;5030215;28;20416;-78
2021/03/24 07:21:38;;;;;;;29.10;20.17;;;4.50;99.90;;;;;;5026888;28;20982;-79
2021/03/24 07:24:21;;;;;;;30.03;20.87;;;4.60;99.90;;;;;;5029505;28;20547;-77
2021/03/24 07:26:58;;;;;;;29.70;21.77;;;4.50;99.90;;;;;;5029088;28;20190;-78
2021/03/24 07:29:50;;;;;;;30.47;21.00;;;4.60;99.90;;;;;;5029487;28;20421;-79
2021/03/24 07:32:32;;;;;;;33.80;21.93;;;4.70;99.90;;;;;;5027661;28;20437;-79
2021/03/24 07:35:06;;;;;;;29.60;22.30;;;4.80;99.90;;;;;;5012169;28;20454;-77
2021/03/24 07:37:47;;;;;;;29.50;21.33;;;4.90;99.90;;;;;;5027659;28;20461;-79
2021/03/24 07:40:49;;;;;;;32.60;23.70;;;4.90;99.90;;;;;;5027876;28;21004;-76
2021/03/24 07:43:38;;;;;;;27.37;20.23;;;5.00;99.90;;;;;;5026946;28;20445;-76
2021/03/24 07:46:34;;;;;;;27.83;21.83;;;5.10;99.90;;;;;;5011917;28;20533;-77
2021/03/24 07:49:28;;;;;;;30.87;22.70;;;5.20;99.90;;;;;;5028239;28;20553;-78
2021/03/24 07:52:08;;;;;;;29.77;21.23;;;5.40;99.90;;;;;;5022707;28;20430;-80
2021/03/24 07:54:47;;;;;;;29.50;22.23;;;5.40;99.90;;;;;;5027861;28;20545;-79
2021/03/24 07:57:39;;;;;;;30.10;21.57;;;5.60;99.90;;;;;;5011072;28;20441;-77
2021/03/24 08:00:11;;;;;;;30.83;22.50;;;5.60;99.90;;;;;;5022298;28;20922;-79
2021/03/24 08:03:01;;;;;;;33.40;22.60;;;5.70;99.90;;;;;;5026736;28;20556;-79
2021/03/24 08:05:27;;;;;;;32.03;23.10;;;5.80;99.90;;;;;;5017412;28;20458;-78
2021/03/24 08:08:13;;;;;;;32.40;23.23;;;5.90;99.90;;;;;;5029019;28;20548;-79
2021/03/24 08:10:47;;;;;;;28.83;21.10;;;6.00;99.90;;;;;;5027574;28;20185;-78
2021/03/24 08:13:21;;;;;;;30.37;21.57;;;6.10;99.90;;;;;;5029179;28;20433;-77
2021/03/24 08:16:22;;;;;;;30.77;23.20;;;6.20;99.90;;;;;;5029515;28;20457;-80
2021/03/24 08:18:57;;;;;;;27.87;20.60;;;6.20;99.90;;;;;;5030482;28;20441;-79
2021/03/24 08:21:36;;;;;;;31.70;21.40;;;6.30;99.90;;;;;;5025959;28;20464;-78
2021/03/24 08:24:16;;;;;;;32.37;21.47;;;6.30;99.90;;;;;;5023312;28;20441;-77
2021/03/24 08:26:47;;;;;;;34.13;23.10;;;6.40;99.90;;;;;;5029940;28;20513;-78
2021/03/24 08:29:46;;;;;;;27.70;22.30;;;6.50;99.90;;;;;;5027722;28;20436;-78
2021/03/24 08:32:46;;;;;;;34.17;21.40;;;6.50;99.90;;;;;;5014669;28;21040;-79
2021/03/24 08:35:54;;;;;;;36.60;20.67;;;6.60;99.90;;;;;;5022823;28;20965;-79
2021/03/24 08:38:48;;;;;;;31.40;21.57;;;6.70;99.90;;;;;;5012508;28;20961;-77
2021/03/24 08:41:23;;;;;;;28.37;20.57;;;6.80;99.90;;;;;;5029059;28;21020;-79
2021/03/24 08:44:20;;;;;;;29.27;20.60;;;6.80;99.90;;;;;;5027431;28;20456;-78
2021/03/24 08:46:58;;;;;;;30.10;20.80;;;7.00;99.90;;;;;;5028260;28;20896;-79
2021/03/24 08:49:31;;;;;;;30.23;21.47;;;7.20;99.90;;;;;;5027615;28;20921;-78
2021/03/24 08:52:14;;;;;;;28.60;21.13;;;7.20;99.90;;;;;;5024096;28;20441;-79
2021/03/24 08:55:00;;;;;;;29.70;23.37;;;7.40;99.90;;;;;;5030548;28;20565;-79
2021/03/24 08:57:54;;;;;;;28.73;20.43;;;7.40;99.90;;;;;;5029126;28;20512;-77
2021/03/24 09:00:29;;;;;;;26.63;20.87;;;7.30;99.90;;;;;;5024003;28;20772;-80
2021/03/24 09:03:25;;;;;;;29.93;22.10;;;7.30;99.90;;;;;;5020030;28;20476;-78
2021/03/24 09:05:56;;;;;;;26.80;19.50;;;7.40;99.90;;;;;;5025901;28;20491;-78
2021/03/24 09:08:32;;;;;;;32.00;23.60;;;7.30;99.90;;;;;;5024060;28;20450;-77
2021/03/24 09:11:24;;;;;;;28.53;20.90;;;7.40;99.90;;;;;;5025883;28;20433;-77
2021/03/24 09:14:24;;;;;;;31.77;22.53;;;7.40;99.90;;;;;;5024211;28;20544;-77
2021/03/24 09:17:05;;;;;;;33.03;21.93;;;7.40;99.90;;;;;;5023329;28;21245;-77
2021/03/24 09:19:58;;;;;;;31.20;22.27;;;7.50;99.90;;;;;;5026490;28;20457;-78
2021/03/24 09:22:43;;;;;;;32.23;22.63;;;7.70;99.90;;;;;;5026587;28;20755;-78
2021/03/24 09:25:20;;;;;;;26.17;20.10;;;7.80;99.90;;;;;;5026603;28;20965;-79
2021/03/24 09:28:30;;;;;;;31.93;21.60;;;7.80;99.90;;;;;;5026706;28;20429;-78
2021/03/24 09:31:28;;;;;;;32.20;21.90;;;7.90;99.90;;;;;;4966389;28;20484;-79
2021/03/24 09:33:59;;;;;;;28.00;21.33;;;8.10;99.90;;;;;;4958215;28;20464;-78
2021/03/24 09:36:52;;;;;;;27.50;20.77;;;8.30;99.90;;;;;;4970035;28;20420;-79
2021/03/24 09:39:27;;;;;;;25.30;20.00;;;8.20;99.90;;;;;;4968883;28;20475;-78
2021/03/24 09:42:24;;;;;;;23.80;19.87;;;8.40;99.90;;;;;;4965706;28;20824;-79
2021/03/24 09:44:53;;;;;;;26.10;20.80;;;8.40;99.90;;;;;;4967168;28;20967;-80
2021/03/24 09:47:57;;;;;;;26.63;18.97;;;8.40;99.90;;;;;;4966846;28;20529;-78
2021/03/24 09:50:23;;;;;;;24.60;18.47;;;8.60;99.90;;;;;;4965529;28;20949;-80
2021/03/24 09:52:54;;;;;;;26.73;20.43;;;8.80;99.90;;;;;;4964871;28;20454;-78
2021/03/24 09:55:25;;;;;;;29.10;20.20;;;8.90;99.90;;;;;;4976292;28;20208;-78
2021/03/24 09:58:22;;;;;;;29.00;18.13;;;9.00;99.90;;;;;;4963222;28;20587;-80
2021/03/24 10:01:01;;;;;;;25.23;19.00;;;9.00;99.90;;;;;;4914449;28;20445;-78
2021/03/24 10:03:44;;;;;;;30.90;21.57;;;9.10;99.90;;;;;;4963883;28;20436;-78
2021/03/24 10:06:26;;;;;;;26.60;20.13;;;9.10;99.90;;;;;;5022495;28;20432;-79
2021/03/24 10:09:07;;;;;;;23.97;19.00;;;9.20;99.90;;;;;;5023650;28;20429;-79
2021/03/24 10:11:47;;;;;;;23.87;18.13;;;9.20;99.90;;;;;;5023618;28;20438;-80
2021/03/24 10:14:25;;;;;;;22.97;18.30;;;9.30;99.90;;;;;;5024331;28;20536;-78
2021/03/24 10:17:00;;;;;;;20.60;17.03;;;9.40;99.90;;;;;;5026006;28;20437;-78
2021/03/24 10:19:41;;;;;;;21.77;17.93;;;9.40;99.90;;;;;;5018136;28;20426;-78
2021/03/24 10:22:13;;;;;;;21.50;18.00;;;9.60;99.90;;;;;;5020758;28;20474;-80
2021/03/24 10:24:45;;;;;;;25.10;19.27;;;9.70;99.90;;;;;;5014791;28;20493;-80
2021/03/24 10:27:25;;;;;;;24.73;19.23;;;9.70;99.90;;;;;;5025928;28;20536;-79
2021/03/24 10:29:56;;;;;;;24.23;19.87;;;9.70;99.90;;;;;;5025209;28;20427;-80
2021/03/24 10:32:29;;;;;;;26.47;20.47;;;9.80;99.90;;;;;;5016824;28;20544;-79
2021/03/24 10:35:05;;;;;;;25.60;19.77;;;10.00;99.90;;;;;;5024511;28;20457;-79
2021/03/24 10:37:37;;;;;;;25.40;18.40;;;10.10;99.90;;;;;;5002890;28;20437;-79
2021/03/24 10:40:18;;;;;;;26.57;20.13;;;10.20;99.90;;;;;;5029957;28;20425;-78
2021/03/24 10:43:04;;;;;;;25.90;20.30;;;10.30;99.90;;;;;;5029542;28;20473;-79
2021/03/24 10:45:31;;;;;;;22.00;17.87;;;10.40;99.90;;;;;;5029459;28;20883;-80
2021/03/24 10:48:13;;;;;;;22.13;17.13;;;10.50;99.90;;;;;;5015772;28;20429;-79
2021/03/24 10:50:59;;;;;;;23.00;17.63;;;10.70;99.90;;;;;;5021749;28;20436;-79
2021/03/24 10:53:29;;;;;;;24.07;17.00;;;10.80;99.90;;;;;;5029274;28;20444;-79
2021/03/24 10:56:44;;;;;;;23.13;18.23;;;10.90;99.90;;;;;;5024908;28;20453;-78
2021/03/24 10:59:32;;;;;;;23.90;18.40;;;11.10;99.90;;;;;;4949807;28;20561;-78
2021/03/24 11:02:17;;;;;;;23.63;18.90;;;11.20;99.90;;;;;;5027452;28;20779;-80
2021/03/24 11:05:00;;;;;;;23.80;17.97;;;11.30;99.90;;;;;;5028432;28;21174;-80
2021/03/24 11:07:25;;;;;;;19.67;17.50;;;11.10;99.90;;;;;;5027900;28;20505;-79
2021/03/24 11:10:03;;;;;;;22.03;17.20;;;11.10;99.90;;;;;;5029800;28;20993;-80
2021/03/24 11:12:43;;;;;;;22.50;17.43;;;11.10;99.90;;;;;;5020554;28;20439;-79
2021/03/24 11:15:46;;;;;;;22.03;18.07;;;11.10;99.90;;;;;;5026881;28;20488;-77
2021/03/24 11:18:17;;;;;;;24.37;17.90;;;11.10;99.90;;;;;;5021242;28;20483;-76
2021/03/24 11:20:44;;;;;;;24.23;16.90;;;11.10;99.90;;;;;;5018238;28;20521;-80
2021/03/24 11:23:15;;;;;;;24.77;17.77;;;11.10;99.90;;;;;;5011574;28;20827;-77
2021/03/24 11:25:58;;;;;;;27.50;17.90;;;11.30;99.90;;;;;;5029289;28;20465;-77
2021/03/24 11:28:26;;;;;;;22.97;18.23;;;11.40;99.90;;;;;;5021693;28;20429;-78
2021/03/24 11:31:03;;;;;;;20.77;18.13;;;11.50;99.90;;;;;;5027734;28;20485;-78
2021/03/24 11:33:35;;;;;;;19.87;15.77;;;11.60;99.90;;;;;;5019883;28;20475;-78
2021/03/24 11:36:25;;;;;;;22.37;17.10;;;11.60;99.90;;;;;;5030755;28;20519;-80
2021/03/24 11:39:06;;;;;;;22.73;17.43;;;11.80;99.90;;;;;;5029447;28;20425;-78
2021/03/24 11:41:36;;;;;;;21.60;16.40;;;12.00;99.90;;;;;;5013018;28;20457;-77
2021/03/24 11:44:15;;;;;;;22.13;16.93;;;12.10;99.90;;;;;;5028904;28;20549;-80
2021/03/24 11:46:43;;;;;;;21.07;15.87;;;12.30;99.90;;;;;;5031998;28;20449;-77
2021/03/24 11:49:44;;;;;;;18.47;15.83;;;12.40;99.90;;;;;;5035254;28;20496;-79
2021/03/24 11:52:31;;;;;;;20.20;17.13;;;12.60;99.90;;;;;;5033325;28;20424;-77
2021/03/24 11:55:29;;;;;;;18.47;14.20;;;12.70;99.90;;;;;;5024452;28;20442;-78
2021/03/24 11:58:03;;;;;;;18.40;16.47;;;12.70;99.90;;;;;;5021689;28;20434;-77
2021/03/24 12:00:49;;;;;;;20.83;17.43;;;13.40;99.90;;;;;;5028157;28;21011;-79
2021/03/24 12:03:33;;;;;;;21.90;17.23;;;14.00;99.90;;;;;;5020204;28;20456;-80
2021/03/24 12:06:10;;;;;;;21.27;18.50;;;14.50;99.90;;;;;;5030925;28;20439;-79
2021/03/24 12:08:42;;;;;;;22.63;17.93;;;15.00;99.90;;;;;;5027140;28;20422;-79
2021/03/24 12:11:29;;;;;;;19.93;16.83;;;15.30;99.90;;;;;;5029143;28;20987;-77
2021/03/24 12:14:09;;;;;;;23.70;18.73;;;15.80;99.90;;;;;;5024705;28;20496;-77
2021/03/24 12:17:02;;;;;;;20.63;18.20;;;16.60;99.90;;;;;;5010206;28;20417;-77
2021/03/24 12:19:33;;;;;;;19.30;17.20;;;16.20;99.50;;;;;;5024793;28;20425;-77
2021/03/24 12:22:02;;;;;;;19.47;16.67;;;15.90;99.60;;;;;;5027909;28;20458;-79
2021/03/24 12:24:38;;;;;;;20.00;17.50;;;15.90;99.20;;;;;;5027997;28;20969;-78
2021/03/24 12:27:15;;;;;;;19.43;17.33;;;15.90;98.30;;;;;;5027293;28;20433;-78
2021/03/24 12:29:58;;;;;;;21.97;18.13;;;16.30;98.10;;;;;;5028407;28;20724;-77
2021/03/24 12:32:26;;;;;;;20.60;15.80;;;16.80;97.40;;;;;;5017713;28;20422;-78
2021/03/24 12:34:54;;;;;;;18.80;16.20;;;16.90;95.40;;;;;;5028983;28;20441;-76
2021/03/24 12:37:21;;;;;;;19.57;16.37;;;16.80;95.10;;;;;;5027581;28;20797;-79
2021/03/24 12:39:50;;;;;;;16.07;14.37;;;17.00;95.00;;;;;;5030532;28;20461;-77
2021/03/24 12:42:21;;;;;;;18.97;16.97;;;17.30;94.70;;;;;;5027866;28;20468;-77
2021/03/24 12:44:47;;;;;;;21.17;17.17;;;17.30;93.90;;;;;;5028906;28;20461;-78
2021/03/24 12:47:31;;;;;;;19.53;17.00;;;17.70;93.80;;;;;;5028056;28;20950;-77
2021/03/24 12:50:09;;;;;;;19.67;16.83;;;17.70;93.20;;;;;;5023178;28;20429;-78
2021/03/24 12:52:47;;;;;;;19.83;17.23;;;17.90;92.90;;;;;;5026132;28;20436;-77
2021/03/24 12:55:15;;;;;;;18.17;15.93;;;17.90;91.20;;;;;;5018033;28;20442;-78
2021/03/24 12:58:02;;;;;;;20.13;17.90;;;17.80;90.50;;;;;;5041107;28;20468;-80
2021/03/24 13:00:38;;;;;;;17.80;15.30;;;18.20;90.40;;;;;;5039387;28;20429;-80
2021/03/24 13:03:22;;;;;;;18.37;16.47;;;18.10;90.00;;;;;;5025512;28;20461;-79
2021/03/24 13:06:20;;;;;;;18.50;15.90;;;18.30;89.90;;;;;;5038558;28;20445;-78
2021/03/24 13:09:19;;;;;;;17.47;15.67;;;18.40;87.60;;;;;;5039210;28;20468;-79
2021/03/24 13:12:05;;;;;;;18.33;15.97;;;18.40;87.30;;;;;;5029113;28;20460;-78
2021/03/24 13:15:02;;;;;;;17.07;15.37;;;18.50;84.70;;;;;;5014154;28;20512;-78
2021/03/24 13:17:39;;;;;;;17.83;16.00;;;18.30;85.10;;;;;;5023876;28;20425;-76
2021/03/24 13:20:26;;;;;;;19.40;17.40;;;18.20;85.30;;;;;;5025930;28;20491;-76
2021/03/24 13:23:13;;;;;;;18.37;16.20;;;18.30;86.40;;;;;;5026076;28;21051;-76
2021/03/24 13:25:51;;;;;;;18.63;15.20;;;18.80;85.50;;;;;;5021470;28;20933;-76
2021/03/24 13:28:45;;;;;;;18.00;15.90;;;19.00;81.20;;;;;;5022923;28;20969;-78